Time;durP1;ratioP1;P1;durP2;ratioP2;P2;SDS_P1;SDS_P2;PMS_P1;PMS_P2;Temp;Humidity;BMP_temperature;BMP_pressure;BME280_temperature;BME280_humidity;BME280_pressure;Samples;Min_cycle;Max_cycle;Signal;HPM_P1;HPM_P2
2022/07/14 00:00:43;;;;;;;4.75;0.45;;;;;;;16.31;89.88;99507.34;1681973;85;21002;-69
2022/07/14 00:03:09;;;;;;;2.58;0.65;;;;;;;16.31;89.54;99509.19;1689813;83;21563;-69
2022/07/14 00:05:36;;;;;;;0.17;0.10;;;;;;;16.29;89.35;99509.97;1686454;83;21028;-68
2022/07/14 00:08:04;;;;;;;2.02;0.20;;;;;;;16.28;89.27;99518.58;1687756;83;21080;-68
2022/07/14 00:10:30;;;;;;;0.62;0.10;;;;;;;16.27;89.38;99527.69;1688575;83;21006;-69
2022/07/14 00:12:56;;;;;;;0.45;0.10;;;;;;;16.29;89.28;99530.14;1696892;82;21031;-67
2022/07/14 00:15:24;;;;;;;1.47;0.10;;;;;;;16.29;89.25;99529.63;1694155;83;21098;-68
2022/07/14 00:17:51;;;;;;;0.28;0.17;;;;;;;16.34;89.01;99526.19;1704102;83;21122;-68
2022/07/14 00:20:18;;;;;;;2.40;0.10;;;;;;;16.36;88.93;99542.89;1699927;83;21024;-68
2022/07/14 00:22:47;;;;;;;0.15;0.10;;;;;;;16.37;88.94;99535.13;1695737;83;20962;-69
2022/07/14 00:25:13;;;;;;;0.30;0.10;;;;;;;16.39;88.88;99526.27;1707650;83;21094;-68
2022/07/14 00:27:39;;;;;;;1.15;0.20;;;;;;;16.39;88.79;99530.81;1704356;83;21122;-69
2022/07/14 00:30:08;;;;;;;0.40;0.30;;;;;;;16.39;88.76;99532.16;1689158;83;21095;-68
2022/07/14 00:32:35;;;;;;;0.20;0.10;;;;;;;16.38;88.87;99534.58;1688426;83;21020;-68
2022/07/14 00:35:05;;;;;;;0.17;0.17;;;;;;;16.38;88.74;99533.23;1696019;81;21004;-67
2022/07/14 00:37:32;;;;;;;0.10;0.10;;;;;;;16.40;88.80;99535.95;1698214;83;21015;-67
2022/07/14 00:40:01;;;;;;;0.10;0.10;;;;;;;16.40;88.76;99533.27;1693549;83;21023;-67
2022/07/14 00:42:40;;;;;;;0.75;0.10;;;;;;;16.39;88.90;99531.66;1693045;83;21091;-69
2022/07/14 00:45:11;;;;;;;0.13;0.10;;;;;;;16.40;88.95;99540.53;1687341;80;21554;-69
2022/07/14 00:47:39;;;;;;;0.30;0.10;;;;;;;16.42;88.94;99535.17;1696065;83;21468;-68
2022/07/14 00:50:09;;;;;;;1.45;0.10;;;;;;;16.45;88.76;99532.55;1663064;85;21006;-68
2022/07/14 00:52:35;;;;;;;0.20;0.10;;;;;;;16.44;88.33;99533.59;1696418;83;20965;-68
2022/07/14 00:55:02;;;;;;;1.15;0.13;;;;;;;16.41;88.38;99538.94;1696659;83;21154;-68
2022/07/14 00:57:29;;;;;;;1.00;0.10;;;;;;;16.40;88.51;99537.84;1696964;83;21515;-68
2022/07/14 00:59:56;;;;;;;1.82;0.13;;;;;;;16.40;88.63;99540.53;1694589;83;21098;-69
2022/07/14 01:02:23;;;;;;;0.10;0.10;;;;;;;16.39;88.43;99554.52;1696749;83;21047;-67
2022/07/14 01:04:51;;;;;;;0.28;0.10;;;;;;;16.37;88.66;99552.60;1697131;83;21590;-69
2022/07/14 01:07:19;;;;;;;0.75;0.10;;;;;;;16.35;88.75;99546.12;1695063;83;21596;-67
2022/07/14 01:09:48;;;;;;;0.23;0.13;;;;;;;16.37;88.56;99546.38;1679163;83;21504;-68
2022/07/14 01:12:15;;;;;;;0.20;0.20;;;;;;;16.41;88.52;99548.89;1696617;82;21018;-68
2022/07/14 01:14:42;;;;;;;1.22;0.10;;;;;;;16.42;88.03;99549.97;1695596;83;20992;-67
2022/07/14 01:17:11;;;;;;;1.67;0.10;;;;;;;16.40;87.67;99554.78;1689690;83;21522;-68
2022/07/14 01:19:38;;;;;;;1.52;0.20;;;;;;;16.38;87.80;99559.59;1696265;83;21480;-67
2022/07/14 01:22:06;;;;;;;1.37;0.10;;;;;;;16.37;88.04;99559.83;1686205;83;21015;-67
2022/07/14 01:24:33;;;;;;;0.75;0.10;;;;;;;16.35;88.09;99560.91;1698783;83;21032;-67
2022/07/14 01:27:02;;;;;;;0.45;0.10;;;;;;;16.37;87.98;99560.67;1701688;83;21441;-68
2022/07/14 01:29:29;;;;;;;0.10;0.10;;;;;;;16.39;87.96;99557.20;1698089;83;21488;-69
2022/07/14 01:31:55;;;;;;;0.85;0.10;;;;;;;16.42;87.95;99558.03;1694320;83;21099;-66
2022/07/14 01:34:22;;;;;;;0.30;0.10;;;;;;;16.42;87.74;99566.11;1697270;83;21118;-68
2022/07/14 01:36:52;;;;;;;0.20;0.17;;;;;;;16.44;87.79;99565.33;1696854;83;21488;-68
2022/07/14 01:39:19;;;;;;;0.90;0.10;;;;;;;16.45;87.61;99555.41;1693920;83;21071;-67
2022/07/14 01:41:47;;;;;;;0.10;0.10;;;;;;;16.44;87.45;99566.67;1681542;83;21114;-67
2022/07/14 01:44:14;;;;;;;0.23;0.10;;;;;;;16.41;87.53;99563.15;1660033;82;21049;-67
2022/07/14 01:46:39;;;;;;;;;;;;;;;16.40;87.48;99566.08;1697280;83;21375;-67
2022/07/14 01:49:07;;;;;;;4.23;0.10;;;;;;;16.41;87.54;99568.53;1695982;83;20119;-68
2022/07/14 01:51:35;;;;;;;2.25;0.10;;;;;;;16.38;87.59;99566.31;1694409;83;21075;-67
2022/07/14 01:54:04;;;;;;;0.45;0.10;;;;;;;16.40;87.55;99569.58;1696435;83;21017;-69
2022/07/14 01:56:35;;;;;;;0.45;0.10;;;;;;;16.42;87.45;99576.05;1663021;84;21050;-68
2022/07/14 01:59:05;;;;;;;0.85;0.10;;;;;;;16.42;87.36;99571.48;1673638;83;21507;-69
2022/07/14 02:01:40;;;;;;;1.75;0.10;;;;;;;16.41;87.07;99580.63;1698096;83;21069;-67
2022/07/14 02:04:15;;;;;;;0.57;0.10;;;;;;;16.38;87.08;99582.99;1706516;83;21041;-68
2022/07/14 02:06:45;;;;;;;0.10;0.10;;;;;;;16.33;86.91;99591.78;1706983;84;20978;-68
2022/07/14 02:09:13;;;;;;;0.17;0.10;;;;;;;16.32;87.04;99587.47;1705099;83;21240;-68
2022/07/14 02:14:27;;;;;;;1.42;0.10;;;;;;;16.39;86.92;99596.20;1706099;83;21572;-69
2022/07/14 02:16:55;;;;;;;3.12;0.30;;;;;;;16.42;86.83;99597.03;1657961;85;21052;-68
2022/07/14 02:19:24;;;;;;;2.47;0.10;;;;;;;16.42;86.43;99591.66;1703462;83;21462;-68
2022/07/14 02:21:52;;;;;;;0.20;0.10;;;;;;;16.42;86.34;99603.76;1705480;84;21096;-68
2022/07/14 02:24:20;;;;;;;1.15;0.20;;;;;;;16.42;86.37;99608.33;1703566;83;21035;-69
2022/07/14 02:26:51;;;;;;;0.30;0.10;;;;;;;16.37;86.53;99611.77;1703998;83;21045;-69
2022/07/14 02:29:19;;;;;;;5.20;0.20;;;;;;;16.35;86.72;99606.63;1701236;83;21018;-68
2022/07/14 02:31:46;;;;;;;0.85;0.10;;;;;;;16.36;86.74;99606.09;1692440;83;21090;-69
2022/07/14 02:34:15;;;;;;;0.78;0.10;;;;;;;16.35;86.36;99609.86;1696407;83;21033;-69
2022/07/14 02:36:42;;;;;;;1.40;0.33;;;;;;;16.33;86.36;99613.29;1689958;83;21086;-68
2022/07/14 02:39:12;;;;;;;1.37;0.10;;;;;;;16.35;86.42;99616.58;1691773;83;21092;-69
2022/07/14 02:41:40;;;;;;;0.13;0.10;;;;;;;16.34;86.34;99613.05;1691994;83;21066;-67
2022/07/14 02:44:08;;;;;;;0.72;0.20;;;;;;;16.33;86.35;99625.39;1692665;83;21073;-67
2022/07/14 02:46:36;;;;;;;0.65;0.20;;;;;;;16.28;86.18;99622.10;1694196;83;21124;-67
2022/07/14 02:49:04;;;;;;;0.35;0.20;;;;;;;16.24;86.44;99625.53;1693322;83;21137;-68
2022/07/14 02:51:33;;;;;;;1.80;0.10;;;;;;;16.22;86.66;99631.15;1692179;83;21106;-68
2022/07/14 02:54:00;;;;;;;0.62;0.10;;;;;;;16.22;86.92;99635.69;1693529;83;21130;-68
2022/07/14 02:56:27;;;;;;;1.05;0.10;;;;;;;16.21;86.79;99642.14;1710899;83;21111;-68
2022/07/14 02:58:54;;;;;;;0.30;0.10;;;;;;;16.23;87.16;99641.37;1722737;82;21552;-67
2022/07/14 03:01:21;;;;;;;2.05;0.10;;;;;;;16.27;87.00;99643.85;1708434;82;21045;-70
2022/07/14 03:03:49;;;;;;;1.67;0.10;;;;;;;16.25;87.21;99643.28;1695872;83;21063;-68
2022/07/14 03:06:19;;;;;;;1.70;0.20;;;;;;;16.24;86.79;99652.42;1692726;84;21034;-68
2022/07/14 03:08:49;;;;;;;1.75;0.20;;;;;;;16.21;87.11;99645.64;1693928;83;21936;-68
2022/07/14 03:11:16;;;;;;;0.30;0.10;;;;;;;16.22;87.26;99647.78;1699900;84;21530;-68
2022/07/14 03:13:44;;;;;;;0.40;0.10;;;;;;;16.22;87.26;99647.78;1710340;82;21036;-68
2022/07/14 03:16:12;;;;;;;2.98;0.20;;;;;;;16.21;87.14;99655.05;1710586;82;21029;-69
2022/07/14 03:18:41;;;;;;;0.55;0.10;;;;;;;16.21;87.31;99667.14;1712392;82;21013;-69
2022/07/14 03:21:11;;;;;;;0.10;0.10;;;;;;;16.22;87.14;99677.37;1710578;83;21085;-69
2022/07/14 03:23:42;;;;;;;0.95;0.10;;;;;;;16.20;87.20;99675.45;1709686;82;21491;-68
2022/07/14 03:26:10;;;;;;;0.20;0.10;;;;;;;16.23;87.40;99673.63;1711292;82;21019;-69
2022/07/14 03:28:37;;;;;;;4.10;0.30;;;;;;;16.26;87.27;99675.85;1710220;82;21045;-70
2022/07/14 03:31:05;;;;;;;1.65;0.20;;;;;;;16.27;87.17;99677.47;1708734;82;21054;-69
2022/07/14 03:33:32;;;;;;;1.37;0.20;;;;;;;16.23;86.90;99681.16;1710903;80;21556;-68
2022/07/14 03:36:00;;;;;;;0.42;0.20;;;;;;;16.13;87.44;99688.52;1711658;82;21021;-69
2022/07/14 03:38:27;;;;;;;0.78;0.10;;;;;;;16.13;87.44;99688.52;1710826;82;21033;-68
2022/07/14 03:40:55;;;;;;;0.72;0.10;;;;;;;16.08;87.79;99692.45;1710030;82;21512;-70
2022/07/14 03:43:21;;;;;;;0.10;0.10;;;;;;;16.06;87.46;99685.16;1711347;82;21048;-68
2022/07/14 03:45:47;;;;;;;;;;;;;;;16.04;87.21;99694.53;1712467;80;21549;-70
2022/07/14 03:48:15;;;;;;;2.47;0.20;;;;;;;16.04;87.40;99700.71;1711150;82;20126;-69
2022/07/14 03:50:43;;;;;;;0.45;0.20;;;;;;;16.01;87.94;99699.87;1709136;82;21044;-68
2022/07/14 03:53:10;;;;;;;2.45;0.10;;;;;;;16.06;87.74;99699.13;1709472;82;21029;-68
2022/07/14 03:55:38;;;;;;;0.42;0.20;;;;;;;16.13;87.43;99713.25;1670440;82;21497;-68
2022/07/14 03:58:05;;;;;;;0.72;0.20;;;;;;;16.15;86.67;99711.95;1711355;82;21029;-69
2022/07/14 04:00:32;;;;;;;0.57;0.10;;;;;;;16.15;86.67;99711.95;1707948;82;21010;-69
2022/07/14 04:02:58;;;;;;;1.85;0.10;;;;;;;16.16;86.65;99711.41;1696891;83;21102;-68
2022/07/14 04:05:26;;;;;;;0.45;0.20;;;;;;;16.12;86.00;99721.02;1684319;83;21548;-70
2022/07/14 04:07:57;;;;;;;1.27;0.15;;;;;;;16.10;86.46;99714.53;1692466;83;21019;-68
2022/07/14 04:10:25;;;;;;;0.30;0.20;;;;;;;16.13;86.56;99719.44;1694290;83;21550;-70
2022/07/14 04:12:52;;;;;;;0.98;0.10;;;;;;;16.14;87.05;99723.77;1689522;83;21546;-69
2022/07/14 04:15:19;;;;;;;2.12;0.25;;;;;;;16.14;87.05;99723.77;1713048;83;21013;-71
2022/07/14 04:17:47;;;;;;;0.47;0.13;;;;;;;16.10;86.85;99725.81;1706655;83;21085;-71
2022/07/14 04:20:16;;;;;;;0.10;0.10;;;;;;;16.10;86.85;99725.81;1704378;83;20980;-70
2022/07/14 04:22:43;;;;;;;0.72;0.10;;;;;;;16.09;86.68;99723.67;1673054;84;21040;-72
2022/07/14 04:25:12;;;;;;;0.85;0.20;;;;;;;16.09;86.30;99727.70;1696041;83;21108;-71
2022/07/14 04:27:39;;;;;;;2.30;0.35;;;;;;;16.08;86.51;99736.00;1693784;83;20963;-72
2022/07/14 04:30:10;;;;;;;0.20;0.10;;;;;;;16.10;86.57;99732.00;1680843;83;21328;-69
2022/07/14 04:32:36;;;;;;;1.52;0.17;;;;;;;16.10;86.24;99739.27;1668043;84;21033;-72
2022/07/14 04:35:04;;;;;;;1.95;0.10;;;;;;;16.12;86.25;99740.67;1657587;85;21010;-71
2022/07/14 04:37:31;;;;;;;0.53;0.10;;;;;;;16.14;86.29;99752.00;1693225;83;21105;-70
2022/07/14 04:40:00;;;;;;;1.55;0.23;;;;;;;16.19;86.34;99755.30;1693552;83;21041;-71
2022/07/14 04:42:26;;;;;;;0.20;0.10;;;;;;;16.23;85.91;99746.23;1692357;83;21203;-72
2022/07/14 04:44:53;;;;;;;0.20;0.10;;;;;;;16.25;85.23;99752.99;1698092;82;22404;-70
2022/07/14 04:47:19;;;;;;;0.50;0.13;;;;;;;16.26;85.00;99746.57;1706363;82;21302;-69
2022/07/14 04:52:32;;;;;;;0.20;0.10;;;;;;;16.27;84.60;99752.22;1705570;82;21049;-71
2022/07/14 04:55:00;;;;;;;2.95;0.20;;;;;;;16.25;84.16;99754.34;1701305;82;20997;-72
2022/07/14 04:57:31;;;;;;;1.27;0.10;;;;;;;16.23;84.41;99756.45;1712116;82;21052;-73
2022/07/14 04:59:57;;;;;;;0.60;0.10;;;;;;;16.26;85.03;99764.59;1669976;84;21054;-72
2022/07/14 05:02:24;;;;;;;0.40;0.10;;;;;;;16.26;85.03;99764.59;1661635;84;21100;-70
2022/07/14 05:04:51;;;;;;;3.33;0.10;;;;;;;16.31;84.60;99767.35;1688851;84;21189;-74
2022/07/14 05:07:17;;;;;;;0.47;0.10;;;;;;;16.33;84.70;99774.65;1692590;84;21037;-73
2022/07/14 05:09:45;;;;;;;1.10;0.20;;;;;;;16.37;84.49;99777.17;1697688;83;21078;-78
2022/07/14 05:12:15;;;;;;;0.68;0.40;;;;;;;16.39;84.01;99783.12;1687456;84;20991;-71
2022/07/14 05:14:41;;;;;;;1.42;0.20;;;;;;;16.41;83.96;99775.62;1688996;85;21047;-71
2022/07/14 05:17:08;;;;;;;0.25;0.25;;;;;;;16.43;84.04;99784.27;1683040;84;21478;-65
2022/07/14 05:19:35;;;;;;;0.62;0.20;;;;;;;16.50;84.14;99788.98;1688366;85;21062;-66
2022/07/14 05:22:02;;;;;;;2.55;0.17;;;;;;;16.55;83.84;99789.59;1692240;84;21093;-66
2022/07/14 05:24:30;;;;;;;1.62;0.10;;;;;;;16.59;83.56;99796.66;1681914;85;21484;-67
2022/07/14 05:26:58;;;;;;;1.12;0.20;;;;;;;16.64;83.01;99791.38;1694124;84;21054;-70
2022/07/14 05:29:27;;;;;;;0.45;0.30;;;;;;;16.68;82.65;99790.64;1690145;85;21036;-68
2022/07/14 05:31:54;;;;;;;0.37;0.17;;;;;;;16.69;82.07;99790.13;1694450;84;21142;-66
2022/07/14 05:34:21;;;;;;;1.10;0.13;;;;;;;16.70;81.38;99791.20;1699787;84;21056;-64
2022/07/14 05:36:48;;;;;;;0.72;0.10;;;;;;;16.79;81.75;99789.48;1705567;84;21053;-65
2022/07/14 05:39:14;;;;;;;0.95;0.10;;;;;;;16.94;81.43;99801.89;1706918;83;21085;-65
2022/07/14 05:41:41;;;;;;;0.47;0.20;;;;;;;17.10;81.23;99796.22;1707406;83;21588;-68
2022/07/14 05:44:08;;;;;;;1.35;0.20;;;;;;;17.22;79.08;99808.27;1706493;83;21556;-66
2022/07/14 05:46:34;;;;;;;0.20;0.10;;;;;;;17.27;78.78;99798.40;1708701;83;21022;-66
2022/07/14 05:49:02;;;;;;;1.77;1.67;;;;;;;17.31;78.59;99806.27;1707773;83;20978;-63
2022/07/14 05:51:28;;;;;;;2.12;1.70;;;;;;;17.36;79.00;99810.91;1706996;83;21561;-69
2022/07/14 05:53:55;;;;;;;3.92;0.50;;;;;;;17.34;78.00;99802.80;1706781;83;21066;-71
2022/07/14 05:56:26;;;;;;;1.25;1.15;;;;;;;17.58;79.32;99808.81;1686764;83;21019;-68
2022/07/14 05:58:53;;;;;;;3.50;0.35;;;;;;;17.83;77.83;99812.39;1702772;82;21681;-69
2022/07/14 06:01:21;;;;;;;1.60;1.22;;;;;;;17.98;76.48;99811.81;1664068;85;21497;-68
2022/07/14 06:03:56;;;;;;;10.60;8.35;;;;;;;18.18;75.84;99811.27;1653242;85;21098;-68
2022/07/14 06:06:23;;;;;;;0.80;0.57;;;;;;;18.46;75.23;99815.09;1658654;85;21084;-67
2022/07/14 06:08:51;;;;;;;2.47;0.33;;;;;;;19.03;73.26;99806.22;1658843;85;21064;-70
2022/07/14 06:11:19;;;;;;;0.53;0.20;;;;;;;19.66;71.10;99805.03;1660491;84;21099;-70
2022/07/14 06:13:46;;;;;;;3.62;0.28;;;;;;;20.28;68.83;99798.59;1658240;85;21500;-70
2022/07/14 06:16:14;;;;;;;0.45;0.10;;;;;;;20.58;65.95;99794.59;1656248;85;21651;-73
2022/07/14 06:18:40;;;;;;;1.70;0.62;;;;;;;20.85;65.11;99796.84;1658558;85;21032;-74
2022/07/14 06:21:09;;;;;;;1.77;0.40;;;;;;;20.99;63.91;99803.36;1657314;85;21003;-71
2022/07/14 06:23:36;;;;;;;0.40;0.40;;;;;;;20.97;63.33;99805.53;1658906;84;21066;-68
2022/07/14 06:26:12;;;;;;;1.07;0.33;;;;;;;20.96;63.26;99801.18;1658952;85;21061;-76
2022/07/14 06:28:41;;;;;;;1.62;0.20;;;;;;;20.86;63.18;99810.12;1671639;85;21033;-66
2022/07/14 06:31:09;;;;;;;0.68;0.30;;;;;;;20.74;63.22;99804.97;1659379;85;22455;-67
2022/07/14 06:33:38;;;;;;;0.10;0.10;;;;;;;20.70;63.69;99807.94;1704776;82;21058;-68
2022/07/14 06:36:08;;;;;;;2.27;0.10;;;;;;;20.75;63.13;99809.28;1700535;84;21014;-68
2022/07/14 06:38:35;;;;;;;0.53;0.10;;;;;;;20.80;63.22;99802.53;1670809;84;21136;-69
2022/07/14 06:41:02;;;;;;;4.12;0.30;;;;;;;20.87;63.97;99802.80;1706289;83;21057;-68
2022/07/14 06:43:30;;;;;;;1.62;0.20;;;;;;;21.17;62.71;99812.30;1703901;83;21065;-76
2022/07/14 06:46:02;;;;;;;0.47;0.10;;;;;;;21.46;60.63;99807.70;1705116;82;21058;-80
2022/07/14 06:48:30;;;;;;;2.62;0.37;;;;;;;21.75;60.30;99817.94;1700956;83;21029;-73
2022/07/14 06:51:03;;;;;;;0.10;0.10;;;;;;;21.98;58.75;99804.30;1709689;83;21040;-70
2022/07/14 06:53:29;;;;;;;0.10;0.10;;;;;;;22.19;58.63;99805.05;1692512;83;21065;-74
2022/07/14 06:57:46;;;;;;;1.42;0.10;;;;;;;22.53;56.88;99806.52;1832715;76;22702;-72
2022/07/14 07:00:12;;;;;;;;;;;;;;;22.70;56.30;99810.22;1809407;78;21047;-71
2022/07/14 07:02:41;;;;;;;0.50;0.30;;;;;;;23.00;55.35;99804.30;1819214;78;20111;-70
2022/07/14 07:08:00;;;;;;;4.72;0.45;;;;;;;23.13;53.10;99802.84;1809618;78;22289;-72
2022/07/14 07:10:27;;;;;;;0.47;0.17;;;;;;;23.22;53.72;99805.77;1808741;78;20961;-70
2022/07/14 07:12:55;;;;;;;0.35;0.10;;;;;;;23.32;53.14;99801.62;1810727;78;21104;-73
2022/07/14 07:15:22;;;;;;;1.45;0.10;;;;;;;23.29;52.29;99802.18;1819915;78;20984;-72
2022/07/14 07:17:49;;;;;;;0.68;0.10;;;;;;;23.26;52.69;99804.94;1812073;78;20975;-73
2022/07/14 07:20:17;;;;;;;0.40;0.10;;;;;;;23.27;52.98;99796.22;1818140;78;21012;-71
2022/07/14 07:22:43;;;;;;;3.83;0.00;;;;;;;23.39;53.32;99805.34;1791275;79;20974;-71
2022/07/14 07:25:12;;;;;;;0.10;0.10;;;;;;;23.58;51.91;99807.59;1782723;79;21473;-72
2022/07/14 07:27:39;;;;;;;0.40;0.10;;;;;;;23.77;51.68;99802.77;1788825;79;21009;-72
2022/07/14 07:30:08;;;;;;;0.20;0.10;;;;;;;23.92;50.56;99805.91;1774220;79;21088;-71
2022/07/14 07:32:36;;;;;;;2.08;0.10;;;;;;;23.90;51.26;99798.86;1777198;79;21068;-70
2022/07/14 07:35:04;;;;;;;1.55;0.20;;;;;;;23.99;50.67;99795.48;1770809;79;21017;-71
2022/07/14 07:37:30;;;;;;;0.20;0.10;;;;;;;23.94;50.49;99793.65;1780225;79;20979;-74
2022/07/14 07:39:58;;;;;;;0.40;0.10;;;;;;;23.81;51.23;99796.52;1774982;79;21099;-74
2022/07/14 07:42:25;;;;;;;0.98;0.10;;;;;;;23.59;50.78;99798.91;1780676;79;21014;-71
2022/07/14 07:44:51;;;;;;;2.37;0.10;;;;;;;23.36;50.91;99795.86;1783116;79;20985;-72
2022/07/14 07:47:17;;;;;;;1.37;0.10;;;;;;;23.17;51.98;99801.73;1792588;79;21058;-81
2022/07/14 07:49:43;;;;;;;1.85;0.10;;;;;;;23.04;52.33;99804.02;1736834;81;21025;-78
2022/07/14 07:52:10;;;;;;;0.50;0.00;;;;;;;23.00;51.97;99793.43;1739346;81;21050;-76
2022/07/14 07:54:36;;;;;;;2.58;0.20;;;;;;;23.02;52.00;99796.67;1752921;81;21029;-76
2022/07/14 07:57:03;;;;;;;1.50;0.10;;;;;;;23.00;51.50;99803.47;1767305;78;21048;-72
2022/07/14 07:59:29;;;;;;;0.25;0.05;;;;;;;22.98;51.67;99801.06;1728221;81;21137;-76
2022/07/14 08:01:56;;;;;;;2.12;0.47;;;;;;;22.94;52.12;99795.91;1729511;81;20986;-75
2022/07/14 08:04:22;;;;;;;2.90;0.20;;;;;;;22.98;51.67;99800.23;1761347;80;21012;-72
2022/07/14 08:06:48;;;;;;;0.13;0.10;;;;;;;23.03;50.96;99801.03;1732141;81;21013;-73
2022/07/14 08:09:15;;;;;;;1.40;0.10;;;;;;;23.03;50.56;99801.03;1777305;79;20995;-72
2022/07/14 08:11:42;;;;;;;2.27;0.20;;;;;;;22.98;50.30;99802.42;1779185;79;21038;-80
2022/07/14 08:16:56;;;;;;;2.52;0.10;;;;;;;22.89;51.28;99809.00;1769114;79;21048;-69
2022/07/14 08:19:24;;;;;;;0.85;0.10;;;;;;;22.86;51.39;99810.91;1779497;79;21033;-71
2022/07/14 08:21:50;;;;;;;0.47;0.10;;;;;;;22.79;51.33;99806.34;1773856;79;21100;-71
2022/07/14 08:24:19;;;;;;;1.75;0.40;;;;;;;22.74;51.46;99808.55;1734411;81;21021;-74
2022/07/14 08:26:46;;;;;;;1.62;0.23;;;;;;;22.71;52.09;99803.67;1744391;81;21062;-72
2022/07/14 08:29:13;;;;;;;1.85;0.10;;;;;;;22.64;52.28;99808.63;1735638;81;21070;-78
2022/07/14 08:31:40;;;;;;;1.10;0.10;;;;;;;22.61;52.88;99814.62;1747554;80;21145;-70
2022/07/14 08:34:06;;;;;;;1.72;0.20;;;;;;;22.54;53.35;99808.68;1741485;81;21092;-73
2022/07/14 08:36:36;;;;;;;1.40;0.20;;;;;;;22.59;53.24;99807.86;1736532;81;21058;-70
2022/07/14 08:39:05;;;;;;;1.27;0.10;;;;;;;22.65;53.61;99806.16;1784566;79;20998;-73
2022/07/14 08:41:36;;;;;;;1.30;0.10;;;;;;;22.76;53.47;99799.33;1763448;80;21060;-72
2022/07/14 08:44:04;;;;;;;1.65;0.13;;;;;;;22.85;53.53;99806.59;1743570;81;21029;-70
2022/07/14 08:46:32;;;;;;;0.40;0.23;;;;;;;22.90;52.69;99807.08;1753412;81;21090;-74
2022/07/14 08:48:59;;;;;;;2.40;0.33;;;;;;;22.85;52.53;99805.75;1747893;81;21009;-72
2022/07/14 08:51:26;;;;;;;1.37;0.30;;;;;;;22.70;53.30;99818.37;1738111;81;21533;-70
2022/07/14 08:53:52;;;;;;;0.23;0.10;;;;;;;22.66;53.96;99815.95;1743985;81;21552;-77
2022/07/14 08:56:20;;;;;;;0.62;0.15;;;;;;;22.73;54.48;99810.19;1720704;82;21096;-72
2022/07/14 08:58:48;;;;;;;0.20;0.10;;;;;;;22.82;54.05;99809.86;1745486;81;20997;-80
2022/07/14 09:01:14;;;;;;;3.90;0.20;;;;;;;22.87;53.68;99822.05;1694381;83;21142;-70
2022/07/14 09:03:41;;;;;;;0.50;0.10;;;;;;;22.85;54.13;99820.70;1708209;82;21053;-73
2022/07/14 09:06:07;;;;;;;0.95;0.30;;;;;;;22.83;54.32;99812.85;1740138;81;20993;-73
2022/07/14 09:08:56;;;;;;;0.15;0.13;;;;;;;22.86;54.61;99818.26;1731683;81;21084;-75
2022/07/14 09:11:23;;;;;;;3.98;0.20;;;;;;;22.96;54.79;99815.45;1712036;83;21151;-79
2022/07/14 09:13:50;;;;;;;1.75;0.17;;;;;;;23.09;54.84;99808.06;1713749;82;21499;-72
2022/07/14 09:16:22;;;;;;;0.37;0.10;;;;;;;23.21;53.76;99813.13;1715899;82;21037;-75
2022/07/14 09:19:09;;;;;;;0.10;0.10;;;;;;;23.23;53.38;99816.37;1730061;81;21027;-69
2022/07/14 09:21:38;;;;;;;1.40;0.20;;;;;;;23.19;52.51;99819.40;1738467;82;20977;-71
2022/07/14 09:24:09;;;;;;;2.58;0.30;;;;;;;23.11;53.38;99819.46;1722347;81;21125;-72
2022/07/14 09:26:50;;;;;;;0.53;0.20;;;;;;;23.09;52.99;99818.11;1740114;81;21037;-70
2022/07/14 09:29:29;;;;;;;0.10;0.10;;;;;;;23.15;52.94;99817.52;1721840;81;21114;-71
2022/07/14 09:31:55;;;;;;;0.62;0.15;;;;;;;23.19;52.65;99817.20;1738377;81;21497;-70
2022/07/14 09:34:33;;;;;;;0.20;0.17;;;;;;;23.25;52.93;99820.16;1739967;80;21002;-74
2022/07/14 09:37:18;;;;;;;0.20;0.10;;;;;;;23.32;51.71;99819.30;1701273;83;21101;-71
2022/07/14 09:39:59;;;;;;;0.30;0.10;;;;;;;23.35;50.73;99815.98;1729584;81;21054;-70
2022/07/14 09:42:50;;;;;;;1.60;0.20;;;;;;;23.26;51.46;99822.60;1722184;81;21055;-70
2022/07/14 09:45:24;;;;;;;0.95;0.10;;;;;;;23.15;51.81;99814.80;1717898;81;21086;-71
2022/07/14 09:47:58;;;;;;;1.12;0.30;;;;;;;23.01;52.28;99824.13;1738531;81;21103;-69
2022/07/14 09:50:57;;;;;;;0.65;0.10;;;;;;;22.95;52.52;99827.44;1733578;81;21504;-71
2022/07/14 09:53:31;;;;;;;0.33;0.10;;;;;;;22.93;53.21;99833.70;1688508;83;21117;-70
2022/07/14 09:56:06;;;;;;;0.25;0.10;;;;;;;22.84;53.13;99830.77;1726693;81;21141;-70
2022/07/14 09:58:51;;;;;;;0.30;0.20;;;;;;;22.71;53.03;99825.96;1713392;82;21018;-71
2022/07/14 10:01:34;;;;;;;0.70;0.10;;;;;;;22.64;53.38;99822.73;1708436;82;21028;-74
2022/07/14 10:04:00;;;;;;;0.57;0.33;;;;;;;22.69;53.56;99820.80;1765762;80;21058;-72
2022/07/14 10:06:27;;;;;;;0.53;0.28;;;;;;;22.87;53.62;99828.05;1747631;81;20993;-71
2022/07/14 10:08:57;;;;;;;0.55;0.30;;;;;;;23.02;53.25;99825.21;1777798;80;21040;-78
2022/07/14 10:11:24;;;;;;;2.22;0.57;;;;;;;23.18;53.05;99815.60;1777792;80;22297;-73
2022/07/14 10:13:50;;;;;;;0.72;0.62;;;;;;;23.35;52.55;99819.26;1765760;80;21009;-72
2022/07/14 10:16:18;;;;;;;0.40;0.20;;;;;;;23.54;52.10;99822.87;1761895;80;21006;-70
2022/07/14 10:18:45;;;;;;;1.00;0.10;;;;;;;23.73;51.76;99822.95;1759760;80;21001;-71
2022/07/14 10:21:11;;;;;;;0.23;0.10;;;;;;;23.85;51.28;99817.16;1770899;80;21046;-70
2022/07/14 10:23:38;;;;;;;0.42;0.30;;;;;;;23.98;51.15;99819.70;1733955;80;21047;-72
2022/07/14 10:26:08;;;;;;;1.10;0.20;;;;;;;24.10;51.00;99818.76;1696458;83;21115;-71
2022/07/14 10:28:33;;;;;;;0.42;0.40;;;;;;;24.18;50.65;99818.09;1720186;82;21025;-72
2022/07/14 10:31:28;;;;;;;2.30;0.55;;;;;;;24.24;50.68;99816.95;1720385;82;20985;-70
2022/07/14 10:34:24;;;;;;;0.80;0.28;;;;;;;24.28;50.14;99803.57;1713719;80;21039;-70
2022/07/14 10:36:56;;;;;;;1.15;0.30;;;;;;;24.26;50.02;99815.28;1656335;83;21288;-73
2022/07/14 10:39:35;;;;;;;0.85;0.40;;;;;;;24.21;49.28;99818.89;1710481;82;21081;-72
2022/07/14 10:42:10;;;;;;;0.75;0.47;;;;;;;24.14;49.97;99814.91;1712285;82;21460;-71
2022/07/14 10:44:40;;;;;;;6.00;5.53;;;;;;;24.06;50.55;99817.16;1704947;82;21021;-72
2022/07/14 10:47:15;;;;;;;1.82;1.00;;;;;;;24.02;51.21;99823.49;1683657;84;21089;-72
2022/07/14 10:50:08;;;;;;;1.67;0.62;;;;;;;23.98;51.15;99826.52;1673581;84;21141;-72
2022/07/14 10:52:38;;;;;;;0.50;0.20;;;;;;;23.85;51.28;99837.01;1673140;84;22514;-72
2022/07/14 10:55:12;;;;;;;0.30;0.30;;;;;;;23.75;51.75;99827.55;1671508;83;21023;-71
2022/07/14 10:58:05;;;;;;;0.42;0.20;;;;;;;23.72;51.22;99833.59;1669344;84;21133;-72
2022/07/14 11:00:47;;;;;;;0.20;0.20;;;;;;;23.71;51.45;99838.75;1705482;83;21540;-70
2022/07/14 11:03:37;;;;;;;0.68;0.47;;;;;;;23.71;51.33;99839.58;1701747;83;21097;-72
2022/07/14 11:06:11;;;;;;;1.40;0.40;;;;;;;23.67;52.09;99836.35;1672306;84;21109;-71
2022/07/14 11:08:43;;;;;;;2.87;0.55;;;;;;;23.61;51.81;99833.42;1689955;83;21048;-69
2022/07/14 11:11:20;;;;;;;1.67;0.40;;;;;;;23.63;52.22;99822.52;1695259;83;21067;-71
2022/07/14 11:14:05;;;;;;;0.68;0.30;;;;;;;23.68;51.78;99827.91;1726718;82;21015;-71
2022/07/14 11:16:51;;;;;;;0.50;0.20;;;;;;;23.72;51.87;99832.23;1669718;84;21618;-71
2022/07/14 11:19:26;;;;;;;0.40;0.30;;;;;;;23.74;51.92;99838.19;1673230;84;21027;-72
2022/07/14 11:22:17;;;;;;;1.80;0.40;;;;;;;23.71;51.25;99838.75;1671122;84;21528;-72
2022/07/14 11:24:58;;;;;;;0.65;0.50;;;;;;;23.71;51.31;99834.67;1684188;83;21064;-71
2022/07/14 11:27:38;;;;;;;0.60;0.30;;;;;;;23.69;51.77;99835.52;1685301;84;21101;-70
2022/07/14 11:30:22;;;;;;;1.52;0.35;;;;;;;23.70;52.58;99831.70;1671222;84;21493;-70
2022/07/14 11:33:09;;;;;;;4.12;0.78;;;;;;;23.69;52.46;99842.31;1691488;83;21556;-70
2022/07/14 11:38:39;;;;;;;0.45;0.30;;;;;;;23.77;52.28;99840.87;1670845;83;20122;-72
2022/07/14 11:41:10;;;;;;;0.68;0.30;;;;;;;23.80;52.66;99838.41;1680312;83;21098;-72
2022/07/14 11:43:44;;;;;;;2.42;0.70;;;;;;;23.90;51.93;99826.60;1685050;83;21095;-71
2022/07/14 11:46:14;;;;;;;0.47;0.42;;;;;;;23.99;51.50;99824.86;1672694;81;21093;-74
2022/07/14 11:49:01;;;;;;;1.22;0.95;;;;;;;24.03;51.61;99814.20;1701069;83;21181;-71
2022/07/14 11:51:31;;;;;;;0.50;0.40;;;;;;;24.10;51.17;99820.12;1709091;82;21034;-73
2022/07/14 11:54:04;;;;;;;0.95;0.50;;;;;;;24.18;51.22;99814.58;1702231;82;21088;-70
2022/07/14 11:56:30;;;;;;;0.90;0.30;;;;;;;24.27;50.89;99814.19;1714703;80;21076;-74
2022/07/14 11:59:03;;;;;;;1.55;0.47;;;;;;;24.36;50.71;99813.00;1705377;83;21080;-71
2022/07/14 12:01:35;;;;;;;2.05;0.65;;;;;;;24.45;50.49;99810.67;1702835;83;21102;-73